Time;durP1;ratioP1;P1;durP2;ratioP2;P2;SDS_P1;SDS_P2;PMS_P1;PMS_P2;Temp;Humidity;BMP_temperature;BMP_pressure;BME280_temperature;BME280_humidity;BME280_pressure;Samples;Min_cycle;Max_cycle;Signal;HPM_P1;HPM_P2
2021/01/26 00:02:04;;;;;;;;;;;16.00;61.20;;;;;;4196424;28;19931;-40
2021/01/26 00:04:25;;;;;;;;;;;16.00;61.40;;;;;;4196123;28;19920;-41
2021/01/26 00:06:46;;;;;;;;;;;16.00;61.50;;;;;;4195804;28;19931;-41
2021/01/26 00:09:07;;;;;;;;;;;16.00;61.40;;;;;;4196366;28;19947;-41
2021/01/26 00:11:28;;;;;;;;;;;16.00;61.20;;;;;;4196137;28;19943;-41
2021/01/26 00:13:49;;;;;;;;;;;16.00;61.20;;;;;;4195823;28;19990;-41
2021/01/26 00:16:10;;;;;;;;;;;16.00;61.50;;;;;;4183520;28;19924;-41
2021/01/26 00:18:31;;;;;;;;;;;16.00;61.50;;;;;;4195977;28;19946;-41
2021/01/26 00:20:52;;;;;;;;;;;16.00;61.50;;;;;;4196330;28;20385;-41
2021/01/26 00:23:15;;;;;;;;;;;16.00;61.50;;;;;;4195660;28;20403;-41
2021/01/26 00:25:37;;;;;;;;;;;15.90;61.80;;;;;;4196291;28;20023;-41
2021/01/26 00:27:58;;;;;;;;;;;15.90;61.80;;;;;;4195952;28;20329;-41
2021/01/26 00:30:21;;;;;;;;;;;15.90;61.70;;;;;;4195893;28;20683;-41
2021/01/26 00:32:42;;;;;;;;;;;16.10;61.20;;;;;;4196416;28;19926;-41
2021/01/26 00:35:03;;;;;;;;;;;16.20;60.80;;;;;;4195606;28;20403;-41
2021/01/26 00:37:24;;;;;;;;;;;16.20;60.60;;;;;;4195842;28;19928;-41
2021/01/26 00:39:45;;;;;;;;;;;16.30;60.50;;;;;;4195664;28;20290;-41
2021/01/26 00:42:06;;;;;;;;;;;16.20;60.50;;;;;;4196098;28;19925;-40
2021/01/26 00:44:27;;;;;;;;;;;16.20;60.50;;;;;;4195682;28;19924;-40
2021/01/26 00:46:48;;;;;;;;;;;16.20;60.50;;;;;;4195983;28;19948;-41
2021/01/26 00:49:09;;;;;;;;;;;16.10;60.70;;;;;;4195592;28;20007;-41
2021/01/26 00:51:32;;;;;;;;;;;16.00;61.00;;;;;;4195002;28;20401;-41
2021/01/26 00:53:53;;;;;;;;;;;15.90;61.10;;;;;;4194392;28;19930;-40
2021/01/26 00:56:14;;;;;;;;;;;15.80;61.50;;;;;;4195085;28;20679;-41
2021/01/26 00:58:37;;;;;;;;;;;15.70;61.90;;;;;;4194207;28;19971;-41
2021/01/26 01:01:02;;;;;;;;;;;15.70;62.20;;;;;;4194774;28;19978;-41
2021/01/26 01:03:27;;;;;;;;;;;15.60;62.40;;;;;;4197826;28;19924;-41
2021/01/26 01:05:47;;;;;;;;;;;15.60;62.40;;;;;;4199114;28;19964;-42
2021/01/26 01:08:08;;;;;;;;;;;15.80;62.10;;;;;;4198766;28;20021;-45
2021/01/26 01:10:31;;;;;;;;;;;15.80;61.60;;;;;;4182432;28;19921;-42
2021/01/26 01:12:52;;;;;;;;;;;15.90;61.50;;;;;;4182056;28;19960;-41
2021/01/26 01:15:14;;;;;;;;;;;15.80;61.40;;;;;;4196866;28;19924;-41
2021/01/26 01:17:35;;;;;;;;;;;15.80;61.60;;;;;;4198673;28;19921;-42
2021/01/26 01:19:57;;;;;;;;;;;15.70;61.70;;;;;;4198751;28;19920;-41
2021/01/26 01:22:17;;;;;;;;;;;15.70;61.80;;;;;;4198502;28;19966;-41
2021/01/26 01:24:39;;;;;;;;;;;15.80;61.80;;;;;;4199031;28;19974;-41
2021/01/26 01:27:00;;;;;;;;;;;15.90;61.20;;;;;;4198100;28;19928;-41
2021/01/26 01:29:20;;;;;;;;;;;16.00;60.70;;;;;;4198263;28;19925;-41
2021/01/26 01:31:41;;;;;;;;;;;16.00;60.60;;;;;;4198516;28;19928;-41
2021/01/26 01:34:02;;;;;;;;;;;16.10;60.60;;;;;;4198633;28;20293;-41
2021/01/26 01:36:23;;;;;;;;;;;16.10;60.40;;;;;;4198455;28;19924;-41
2021/01/26 01:38:44;;;;;;;;;;;16.20;60.10;;;;;;4181829;28;19986;-41
2021/01/26 01:41:05;;;;;;;;;;;16.30;59.90;;;;;;4181757;28;19928;-41
2021/01/26 01:43:26;;;;;;;;;;;16.20;59.80;;;;;;4184944;28;19928;-41
2021/01/26 01:45:47;;;;;;;;;;;16.20;59.90;;;;;;4198230;28;20027;-41
2021/01/26 01:48:12;;;;;;;;;;;16.10;60.10;;;;;;4198183;28;19970;-41
2021/01/26 01:50:34;;;;;;;;;;;16.00;60.40;;;;;;4181861;28;20306;-40
2021/01/26 01:52:58;;;;;;;;;;;15.90;60.80;;;;;;4182030;28;19921;-40
2021/01/26 01:55:20;;;;;;;;;;;15.90;60.90;;;;;;4197292;28;20336;-41
2021/01/26 01:57:44;;;;;;;;;;;16.00;60.60;;;;;;4198022;28;19939;-41
2021/01/26 02:00:06;;;;;;;;;;;16.10;60.30;;;;;;4198084;28;19928;-41
2021/01/26 02:02:33;;;;;;;;;;;16.00;60.10;;;;;;4198049;28;19924;-41
2021/01/26 02:04:54;;;;;;;;;;;15.90;60.30;;;;;;4196270;28;20019;-41
2021/01/26 02:07:16;;;;;;;;;;;15.80;60.60;;;;;;4198088;28;19924;-41
2021/01/26 02:09:39;;;;;;;;;;;15.80;61.00;;;;;;4197985;28;20642;-40
2021/01/26 02:12:00;;;;;;;;;;;15.70;60.90;;;;;;4197387;28;19920;-40
2021/01/26 02:14:22;;;;;;;;;;;15.90;60.60;;;;;;4196756;28;19920;-41
2021/01/26 02:16:50;;;;;;;;;;;16.00;60.30;;;;;;4198141;28;19963;-41
2021/01/26 02:19:18;;;;;;;;;;;16.00;60.20;;;;;;4197612;28;20294;-41
2021/01/26 02:22:01;;;;;;;;;;;16.00;60.00;;;;;;4197342;28;20325;-41
2021/01/26 02:24:46;;;;;;;;;;;15.90;59.80;;;;;;4197204;28;19931;-41
2021/01/26 02:27:33;;;;;;;;;;;16.00;59.70;;;;;;4197425;28;19975;-41
2021/01/26 02:30:07;;;;;;;;;;;15.90;59.70;;;;;;4197399;28;19920;-41
2021/01/26 02:32:31;;;;;;;;;;;15.90;59.70;;;;;;4197216;28;19924;-42
2021/01/26 02:35:16;;;;;;;;;;;15.90;59.90;;;;;;4197323;28;19966;-47
2021/01/26 02:37:55;;;;;;;;;;;15.90;59.60;;;;;;4190064;28;19928;-43
2021/01/26 02:40:18;;;;;;;;;;;15.80;59.50;;;;;;4180743;28;20383;-41
2021/01/26 02:42:50;;;;;;;;;;;15.80;59.50;;;;;;4183062;28;20367;-41
2021/01/26 02:45:16;;;;;;;;;;;15.70;59.60;;;;;;4181254;28;19936;-41
2021/01/26 02:47:40;;;;;;;;;;;15.60;59.70;;;;;;4180794;28;19974;-41
2021/01/26 02:50:05;;;;;;;;;;;15.50;59.80;;;;;;4196438;28;19924;-41
2021/01/26 02:52:29;;;;;;;;;;;15.40;59.90;;;;;;4196991;28;19989;-42
2021/01/26 02:54:52;;;;;;;;;;;15.40;60.30;;;;;;4197136;28;20698;-42
2021/01/26 02:57:15;;;;;;;;;;;15.40;60.20;;;;;;4180887;28;20443;-41
2021/01/26 02:59:39;;;;;;;;;;;15.40;60.30;;;;;;4195455;28;19930;-41
2021/01/26 03:02:03;;;;;;;;;;;15.40;60.20;;;;;;4196650;28;19968;-41
2021/01/26 03:04:28;;;;;;;;;;;15.50;60.00;;;;;;4180385;28;19976;-41
2021/01/26 03:06:50;;;;;;;;;;;15.70;59.50;;;;;;4180224;28;20282;-41
2021/01/26 03:09:13;;;;;;;;;;;15.90;58.90;;;;;;4192031;28;20366;-41
2021/01/26 03:11:36;;;;;;;;;;;16.10;58.60;;;;;;4197397;28;19924;-41
2021/01/26 03:14:02;;;;;;;;;;;16.10;58.20;;;;;;4197077;28;19924;-41
2021/01/26 03:16:25;;;;;;;;;;;16.10;58.20;;;;;;4197072;28;19927;-42
2021/01/26 03:18:48;;;;;;;;;;;16.10;58.40;;;;;;4196479;28;20054;-42
2021/01/26 03:21:09;;;;;;;;;;;16.00;58.60;;;;;;4196625;28;19920;-41
2021/01/26 03:23:33;;;;;;;;;;;16.00;58.70;;;;;;4196350;28;20073;-41
2021/01/26 03:25:54;;;;;;;;;;;16.10;58.70;;;;;;4196445;28;19963;-41
2021/01/26 03:28:16;;;;;;;;;;;16.00;58.80;;;;;;4196653;28;19928;-41
2021/01/26 03:30:39;;;;;;;;;;;16.00;59.00;;;;;;4196686;28;20017;-40
2021/01/26 03:33:02;;;;;;;;;;;16.00;59.10;;;;;;4196385;28;19920;-41
2021/01/26 03:35:23;;;;;;;;;;;16.10;58.80;;;;;;4196100;28;19928;-41
2021/01/26 03:37:48;;;;;;;;;;;16.20;58.60;;;;;;4196300;28;20298;-42
2021/01/26 03:40:09;;;;;;;;;;;16.20;58.50;;;;;;4196342;28;19924;-41
2021/01/26 03:42:30;;;;;;;;;;;16.20;58.60;;;;;;4196371;28;19935;-41
2021/01/26 03:44:51;;;;;;;;;;;16.10;58.70;;;;;;4190230;28;20374;-41
2021/01/26 03:47:25;;;;;;;;;;;16.00;59.20;;;;;;4196196;28;19928;-41
2021/01/26 03:49:54;;;;;;;;;;;16.00;59.20;;;;;;4196248;28;19924;-41
2021/01/26 03:52:21;;;;;;;;;;;16.00;59.30;;;;;;4196370;28;20542;-42
2021/01/26 03:54:42;;;;;;;;;;;16.20;59.10;;;;;;4180014;28;19932;-42
2021/01/26 03:57:26;;;;;;;;;;;16.30;58.50;;;;;;4179676;28;19943;-42
2021/01/26 03:59:55;;;;;;;;;;;16.50;58.10;;;;;;4180165;28;19928;-42
2021/01/26 04:02:18;;;;;;;;;;;16.60;57.90;;;;;;4186258;28;19964;-41
2021/01/26 04:04:45;;;;;;;;;;;16.50;58.00;;;;;;4194858;28;19936;-42
2021/01/26 04:07:12;;;;;;;;;;;16.50;58.20;;;;;;4196162;28;20278;-41
2021/01/26 04:09:35;;;;;;;;;;;16.30;58.40;;;;;;4196182;28;20429;-41
2021/01/26 04:11:58;;;;;;;;;;;16.20;58.70;;;;;;4196302;28;20334;-42
2021/01/26 04:14:22;;;;;;;;;;;16.10;59.00;;;;;;4179520;28;19927;-43
2021/01/26 04:16:50;;;;;;;;;;;16.20;59.10;;;;;;4179493;28;19925;-42
2021/01/26 04:19:12;;;;;;;;;;;16.30;58.90;;;;;;4179986;28;19924;-40
2021/01/26 04:21:35;;;;;;;;;;;16.40;58.60;;;;;;4182271;28;19928;-43
2021/01/26 04:23:56;;;;;;;;;;;16.40;58.50;;;;;;4195876;28;19973;-42
2021/01/26 04:26:20;;;;;;;;;;;16.40;58.60;;;;;;4196250;28;20735;-41
2021/01/26 04:28:42;;;;;;;;;;;16.30;58.80;;;;;;4195707;28;20062;-42
2021/01/26 04:31:03;;;;;;;;;;;16.30;58.60;;;;;;4196079;28;19931;-44
2021/01/26 04:33:24;;;;;;;;;;;16.40;58.50;;;;;;4196013;28;20008;-41
2021/01/26 04:35:45;;;;;;;;;;;16.50;58.30;;;;;;4196068;28;19936;-43
2021/01/26 04:38:09;;;;;;;;;;;16.50;58.30;;;;;;4199237;28;19963;-43
2021/01/26 04:40:30;;;;;;;;;;;16.40;58.40;;;;;;4199103;28;19955;-42
2021/01/26 04:42:57;;;;;;;;;;;16.30;58.70;;;;;;4199378;28;19920;-41
2021/01/26 04:45:22;;;;;;;;;;;16.30;58.90;;;;;;4199407;28;19932;-42
2021/01/26 04:47:45;;;;;;;;;;;16.40;59.40;;;;;;4198934;28;19963;-41
2021/01/26 04:50:11;;;;;;;;;;;16.60;58.30;;;;;;4198907;28;19921;-42
2021/01/26 04:52:46;;;;;;;;;;;16.60;58.00;;;;;;4199324;28;19924;-42
2021/01/26 04:55:15;;;;;;;;;;;16.60;57.90;;;;;;4199436;28;20484;-42
2021/01/26 04:57:53;;;;;;;;;;;16.60;58.10;;;;;;4198754;28;19921;-41
2021/01/26 05:00:20;;;;;;;;;;;16.50;58.30;;;;;;4197713;28;20294;-41
2021/01/26 05:02:54;;;;;;;;;;;16.50;58.50;;;;;;4199071;28;20350;-44
2021/01/26 05:05:20;;;;;;;;;;;16.40;58.40;;;;;;4199034;28;19924;-43
2021/01/26 05:07:42;;;;;;;;;;;16.40;58.60;;;;;;4198639;28;20019;-42
2021/01/26 05:10:05;;;;;;;;;;;16.30;58.80;;;;;;4199324;28;20409;-45
2021/01/26 05:12:48;;;;;;;;;;;16.20;59.00;;;;;;4198482;28;20057;-41
2021/01/26 05:15:10;;;;;;;;;;;16.10;59.30;;;;;;4198649;28;19986;-43
2021/01/26 05:17:34;;;;;;;;;;;16.20;59.30;;;;;;4198580;28;19920;-41
2021/01/26 05:19:59;;;;;;;;;;;16.20;59.20;;;;;;4199152;28;19958;-41
2021/01/26 05:22:24;;;;;;;;;;;16.20;59.90;;;;;;4198398;28;20015;-42
2021/01/26 05:24:47;;;;;;;;;;;16.10;59.30;;;;;;4181919;28;19924;-42
2021/01/26 05:27:08;;;;;;;;;;;16.10;59.50;;;;;;4183833;28;20383;-41
2021/01/26 05:29:30;;;;;;;;;;;16.10;59.40;;;;;;4198399;28;19935;-44
2021/01/26 05:32:00;;;;;;;;;;;16.30;59.10;;;;;;4198809;28;19920;-42
2021/01/26 05:34:22;;;;;;;;;;;16.30;58.90;;;;;;4198760;28;20389;-42
2021/01/26 05:36:44;;;;;;;;;;;16.40;58.80;;;;;;4198196;28;19920;-41
2021/01/26 05:39:06;;;;;;;;;;;16.40;58.70;;;;;;4198256;28;19924;-41
2021/01/26 05:41:27;;;;;;;;;;;16.60;58.40;;;;;;4198016;28;19924;-41
2021/01/26 05:43:48;;;;;;;;;;;16.70;57.90;;;;;;4198029;28;19955;-41
2021/01/26 05:46:29;;;;;;;;;;;16.80;57.60;;;;;;4198063;28;19928;-41
2021/01/26 05:49:06;;;;;;;;;;;16.80;57.50;;;;;;4196806;28;19963;-41
2021/01/26 05:51:28;;;;;;;;;;;16.70;57.70;;;;;;4197792;28;20433;-41
2021/01/26 05:53:53;;;;;;;;;;;16.60;58.00;;;;;;4197853;28;19924;-41
2021/01/26 05:56:15;;;;;;;;;;;16.50;58.20;;;;;;4197865;28;19931;-42
2021/01/26 05:58:37;;;;;;;;;;;16.40;58.60;;;;;;4197654;28;20332;-41
2021/01/26 06:01:00;;;;;;;;;;;16.40;58.80;;;;;;4197567;28;19927;-41
2021/01/26 06:03:22;;;;;;;;;;;16.50;58.70;;;;;;4197908;28;19931;-41
2021/01/26 06:05:43;;;;;;;;;;;16.50;58.50;;;;;;4198510;28;20647;-41
2021/01/26 06:08:08;;;;;;;;;;;16.50;58.50;;;;;;4197901;28;19920;-41
2021/01/26 06:10:30;;;;;;;;;;;16.50;58.50;;;;;;4196787;28;20027;-41
2021/01/26 06:12:52;;;;;;;;;;;16.50;58.60;;;;;;4196491;28;20368;-41
2021/01/26 06:15:19;;;;;;;;;;;16.60;58.40;;;;;;4198148;28;20275;-40
2021/01/26 06:17:40;;;;;;;;;;;16.60;58.20;;;;;;4197948;28;19924;-42
2021/01/26 06:20:14;;;;;;;;;;;16.60;58.10;;;;;;4197750;28;19942;-42
2021/01/26 06:22:35;;;;;;;;;;;16.60;58.20;;;;;;4197637;28;19967;-41
2021/01/26 06:24:56;;;;;;;;;;;16.50;58.50;;;;;;4197666;28;19925;-41
2021/01/26 06:27:26;;;;;;;;;;;16.40;58.70;;;;;;4197680;28;19931;-43
2021/01/26 06:29:49;;;;;;;;;;;16.60;58.50;;;;;;4197849;28;19930;-45
2021/01/26 06:32:17;;;;;;;;;;;16.70;58.10;;;;;;4197568;28;20457;-42
2021/01/26 06:34:43;;;;;;;;;;;16.70;57.80;;;;;;4197412;28;19993;-42
2021/01/26 06:37:28;;;;;;;;;;;16.80;57.80;;;;;;4197297;28;19928;-43
2021/01/26 06:40:07;;;;;;;;;;;16.70;57.90;;;;;;4190288;28;19925;-43
2021/01/26 06:42:34;;;;;;;;;;;16.60;58.10;;;;;;4197468;28;19924;-40
2021/01/26 06:45:04;;;;;;;;;;;16.60;58.20;;;;;;4196270;28;19931;-41
2021/01/26 06:47:35;;;;;;;;;;;16.60;58.30;;;;;;4196762;28;20366;-41
2021/01/26 06:50:01;;;;;;;;;;;16.50;58.50;;;;;;4197085;28;20378;-41
2021/01/26 06:52:43;;;;;;;;;;;16.40;58.70;;;;;;4197606;28;19920;-41
2021/01/26 06:55:18;;;;;;;;;;;16.40;58.70;;;;;;4197352;28;20276;-41
2021/01/26 06:57:49;;;;;;;;;;;16.40;58.70;;;;;;4196767;28;20015;-43
2021/01/26 07:00:22;;;;;;;;;;;16.40;58.90;;;;;;4196525;28;19947;-41
2021/01/26 07:03:04;;;;;;;;;;;16.40;59.10;;;;;;4179653;28;19927;-41
2021/01/26 07:05:51;;;;;;;;;;;16.40;59.50;;;;;;4182726;28;20048;-41
2021/01/26 07:08:31;;;;;;;;;;;16.50;59.70;;;;;;4169067;28;20325;-41
2021/01/26 07:11:00;;;;;;;;;;;16.60;59.50;;;;;;4196372;28;19928;-41
2021/01/26 07:13:31;;;;;;;;;;;16.60;59.30;;;;;;4194655;28;20006;-40
2021/01/26 07:16:08;;;;;;;;;;;16.50;59.30;;;;;;4180173;28;19921;-41
2021/01/26 07:18:43;;;;;;;;;;;16.60;59.10;;;;;;4187947;28;20401;-42
2021/01/26 07:21:10;;;;;;;;;;;16.80;58.50;;;;;;4196401;28;19932;-44
2021/01/26 07:23:39;;;;;;;;;;;17.00;57.90;;;;;;4187277;28;19924;-41
2021/01/26 07:26:23;;;;;;;;;;;17.10;57.60;;;;;;4197085;28;20374;-41
2021/01/26 07:29:04;;;;;;;;;;;17.00;57.40;;;;;;4188900;28;19931;-42
2021/01/26 07:31:29;;;;;;;;;;;17.00;57.60;;;;;;4196662;28;19921;-41
2021/01/26 07:33:56;;;;;;;;;;;16.80;57.90;;;;;;4196799;28;19928;-41
2021/01/26 07:36:21;;;;;;;;;;;16.70;58.20;;;;;;4196727;28;19936;-42
2021/01/26 07:38:43;;;;;;;;;;;16.50;58.60;;;;;;4196798;28;19921;-41
2021/01/26 07:41:07;;;;;;;;;;;16.40;59.10;;;;;;4184195;28;20394;-42
2021/01/26 07:43:32;;;;;;;;;;;16.30;59.40;;;;;;4189959;28;19928;-47
2021/01/26 07:45:55;;;;;;;;;;;16.30;59.30;;;;;;4196822;28;19920;-44
2021/01/26 07:48:20;;;;;;;;;;;16.40;59.20;;;;;;4196571;28;20468;-43
2021/01/26 07:50:44;;;;;;;;;;;16.30;59.20;;;;;;4196596;28;20011;-42
2021/01/26 07:53:10;;;;;;;;;;;16.30;59.30;;;;;;4196106;28;19924;-42
2021/01/26 07:55:34;;;;;;;;;;;16.30;59.30;;;;;;4196392;28;19928;-42
2021/01/26 07:57:58;;;;;;;;;;;16.40;59.00;;;;;;4195979;28;20283;-42
2021/01/26 08:00:22;;;;;;;;;;;16.50;58.80;;;;;;4179735;28;19925;-42
2021/01/26 08:02:50;;;;;;;;;;;16.50;58.60;;;;;;4183769;28;19924;-42
2021/01/26 08:05:13;;;;;;;;;;;16.50;58.70;;;;;;4187745;28;19931;-41
2021/01/26 08:07:33;;;;;;;;;;;16.60;58.70;;;;;;4196102;28;19939;-42
2021/01/26 08:09:55;;;;;;;;;;;16.60;58.60;;;;;;4196177;28;20337;-43
2021/01/26 08:12:16;;;;;;;;;;;16.50;58.60;;;;;;4195420;28;19931;-51
2021/01/26 08:14:38;;;;;;;;;;;16.50;58.80;;;;;;4196129;28;19924;-42
2021/01/26 08:17:00;;;;;;;;;;;16.40;59.00;;;;;;4196352;28;20559;-43
2021/01/26 08:19:23;;;;;;;;;;;16.20;59.40;;;;;;4196253;28;19946;-43
2021/01/26 08:21:45;;;;;;;;;;;16.10;59.60;;;;;;4196145;28;20420;-44
2021/01/26 08:24:12;;;;;;;;;;;16.00;60.00;;;;;;4196086;28;20278;-43
2021/01/26 08:26:32;;;;;;;;;;;16.10;60.10;;;;;;4195417;28;20035;-41
2021/01/26 08:28:54;;;;;;;;;;;16.20;59.80;;;;;;4195764;28;19924;-41
2021/01/26 08:31:26;;;;;;;;;;;16.20;59.50;;;;;;4196099;28;19947;-41
2021/01/26 08:33:47;;;;;;;;;;;16.30;59.40;;;;;;4195525;28;19924;-41
2021/01/26 08:36:25;;;;;;;;;;;16.30;59.20;;;;;;4196254;28;20378;-41
2021/01/26 08:38:52;;;;;;;;;;;16.40;59.00;;;;;;4196141;28;20401;-42
2021/01/26 08:41:31;;;;;;;;;;;16.40;58.90;;;;;;4195755;28;20609;-41
2021/01/26 08:43:52;;;;;;;;;;;16.30;59.00;;;;;;4196161;28;19967;-41
2021/01/26 08:46:32;;;;;;;;;;;16.30;59.20;;;;;;4196151;28;20447;-41
2021/01/26 08:48:56;;;;;;;;;;;16.40;59.20;;;;;;4195968;28;19925;-41
2021/01/26 08:51:24;;;;;;;;;;;16.40;59.00;;;;;;4196079;28;20306;-41
2021/01/26 08:53:45;;;;;;;;;;;16.50;58.80;;;;;;4195804;28;19924;-41
2021/01/26 08:56:32;;;;;;;;;;;16.40;58.70;;;;;;4195748;28;19947;-41
2021/01/26 08:58:55;;;;;;;;;;;16.40;58.80;;;;;;4179382;28;20294;-41
2021/01/26 09:01:31;;;;;;;;;;;16.40;59.00;;;;;;4179176;28;19924;-41
2021/01/26 09:03:53;;;;;;;;;;;16.50;58.70;;;;;;4179413;28;19959;-41
2021/01/26 09:06:34;;;;;;;;;;;16.60;58.20;;;;;;4178424;28;19927;-41
2021/01/26 09:08:56;;;;;;;;;;;16.60;58.00;;;;;;4179449;28;20030;-41
2021/01/26 09:11:19;;;;;;;;;;;16.60;58.10;;;;;;4179332;28;19921;-41
2021/01/26 09:13:41;;;;;;;;;;;16.50;58.30;;;;;;4190709;28;20382;-42
2021/01/26 09:16:04;;;;;;;;;;;16.50;58.50;;;;;;4195642;28;20397;-40
2021/01/26 09:18:26;;;;;;;;;;;16.50;58.50;;;;;;4195742;28;19932;-41
2021/01/26 09:20:49;;;;;;;;;;;16.50;58.50;;;;;;4195813;28;20004;-41
2021/01/26 09:23:11;;;;;;;;;;;16.40;58.70;;;;;;4197553;28;19924;-41
2021/01/26 09:25:35;;;;;;;;;;;16.30;58.90;;;;;;4198797;28;20669;-42
2021/01/26 09:27:56;;;;;;;;;;;16.30;59.00;;;;;;4197712;28;20369;-41
2021/01/26 09:30:19;;;;;;;;;;;16.20;59.20;;;;;;4198483;28;20031;-41
2021/01/26 09:32:42;;;;;;;;;;;16.20;59.40;;;;;;4198402;28;20430;-42
2021/01/26 09:35:10;;;;;;;;;;;16.10;59.60;;;;;;4198179;28;19920;-41
2021/01/26 09:37:31;;;;;;;;;;;16.00;59.80;;;;;;4181930;28;19960;-42
2021/01/26 09:40:05;;;;;;;;;;;16.00;59.80;;;;;;4191608;28;19924;-42
2021/01/26 09:42:26;;;;;;;;;;;16.00;60.00;;;;;;4198484;28;19967;-41
2021/01/26 09:45:05;;;;;;;;;;;15.90;60.20;;;;;;4198164;28;20015;-41
2021/01/26 09:47:27;;;;;;;;;;;16.00;60.20;;;;;;4187619;28;19924;-41
2021/01/26 09:49:49;;;;;;;;;;;16.20;59.70;;;;;;4198007;28;20290;-41
2021/01/26 09:52:11;;;;;;;;;;;16.40;59.20;;;;;;4181747;28;19925;-41
2021/01/26 09:54:33;;;;;;;;;;;16.50;58.90;;;;;;4181629;28;19931;-41
2021/01/26 09:56:54;;;;;;;;;;;16.50;58.70;;;;;;4181595;28;19920;-41
2021/01/26 09:59:16;;;;;;;;;;;16.50;58.80;;;;;;4181530;28;19931;-41
2021/01/26 10:01:38;;;;;;;;;;;16.50;58.80;;;;;;4181388;28;19939;-41
2021/01/26 10:04:00;;;;;;;;;;;16.50;58.90;;;;;;4181640;28;20517;-48
2021/01/26 10:06:22;;;;;;;;;;;16.40;58.90;;;;;;4181654;28;20602;-44
2021/01/26 10:08:43;;;;;;;;;;;16.40;59.20;;;;;;4191011;28;20374;-46
2021/01/26 10:11:11;;;;;;;;;;;16.30;59.30;;;;;;4197619;28;19932;-42
2021/01/26 10:13:33;;;;;;;;;;;16.40;59.20;;;;;;4181347;28;20421;-41
2021/01/26 10:15:55;;;;;;;;;;;16.60;58.90;;;;;;4185619;28;19963;-41
2021/01/26 10:18:16;;;;;;;;;;;16.70;58.70;;;;;;4197532;28;20293;-41
2021/01/26 10:20:48;;;;;;;;;;;16.80;58.50;;;;;;4197762;28;19924;-42
2021/01/26 10:23:12;;;;;;;;;;;16.90;58.20;;;;;;4197822;28;19989;-41
2021/01/26 10:25:33;;;;;;;;;;;16.90;58.10;;;;;;4196270;28;19921;-41
2021/01/26 10:28:04;;;;;;;;;;;16.80;58.30;;;;;;4197529;28;20271;-42
2021/01/26 10:30:27;;;;;;;;;;;16.70;58.60;;;;;;4197781;28;19921;-41
2021/01/26 10:32:48;;;;;;;;;;;16.60;58.80;;;;;;4197706;28;19920;-42
2021/01/26 10:35:23;;;;;;;;;;;16.50;59.20;;;;;;4197062;28;20069;-41
2021/01/26 10:37:43;;;;;;;;;;;16.40;59.30;;;;;;4197723;28;19924;-41
2021/01/26 10:40:11;;;;;;;;;;;16.40;59.50;;;;;;4197682;28;20449;-41
2021/01/26 10:42:33;;;;;;;;;;;16.30;59.70;;;;;;4197676;28;19924;-41
2021/01/26 10:44:54;;;;;;;;;;;16.20;59.90;;;;;;4197406;28;19924;-43
2021/01/26 10:47:16;;;;;;;;;;;16.20;60.10;;;;;;4197228;28;19925;-41
2021/01/26 10:49:37;;;;;;;;;;;16.20;60.00;;;;;;4197578;28;20484;-41
2021/01/26 10:51:59;;;;;;;;;;;16.30;59.80;;;;;;4197067;28;19924;-41
2021/01/26 10:54:20;;;;;;;;;;;16.40;59.40;;;;;;4197410;28;19928;-42
2021/01/26 10:56:43;;;;;;;;;;;16.40;59.30;;;;;;4197565;28;20035;-41
2021/01/26 10:59:04;;;;;;;;;;;16.50;59.20;;;;;;4197223;28;19920;-40
2021/01/26 11:01:25;;;;;;;;;;;16.60;59.00;;;;;;4197083;28;19927;-41
2021/01/26 11:03:46;;;;;;;;;;;16.60;58.80;;;;;;4197308;28;19921;-42
2021/01/26 11:06:07;;;;;;;;;;;16.60;58.80;;;;;;4197333;28;19928;-41
2021/01/26 11:08:28;;;;;;;;;;;16.60;58.80;;;;;;4194983;28;19920;-44
2021/01/26 11:10:49;;;;;;;;;;;16.70;58.70;;;;;;4196913;28;19967;-41
2021/01/26 11:13:11;;;;;;;;;;;16.70;58.60;;;;;;4196844;28;19956;-42
2021/01/26 11:15:32;;;;;;;;;;;16.70;58.70;;;;;;4197013;28;19982;-41
2021/01/26 11:17:54;;;;;;;;;;;16.60;58.70;;;;;;4196871;28;19924;-41
2021/01/26 11:20:15;;;;;;;;;;;16.60;59.00;;;;;;4196577;28;19936;-41
2021/01/26 11:22:36;;;;;;;;;;;16.60;59.10;;;;;;4186325;28;19924;-41
2021/01/26 11:24:57;;;;;;;;;;;16.50;59.20;;;;;;4196844;28;19932;-41
2021/01/26 11:27:18;;;;;;;;;;;16.40;59.30;;;;;;4196322;28;19924;-41
2021/01/26 11:29:40;;;;;;;;;;;16.40;59.60;;;;;;4196630;28;20412;-41
2021/01/26 11:32:01;;;;;;;;;;;16.40;60.00;;;;;;4196476;28;20003;-41
2021/01/26 11:34:22;;;;;;;;;;;16.40;59.80;;;;;;4195506;28;19924;-41
2021/01/26 11:36:44;;;;;;;;;;;16.50;59.80;;;;;;4183799;28;19964;-41
2021/01/26 11:39:05;;;;;;;;;;;16.60;59.60;;;;;;4195736;28;20354;-41
2021/01/26 11:41:26;;;;;;;;;;;16.70;60.60;;;;;;4196207;28;19928;-41
2021/01/26 11:43:48;;;;;;;;;;;16.70;60.50;;;;;;4196386;28;19924;-42
2021/01/26 11:46:09;;;;;;;;;;;16.70;60.40;;;;;;4195437;28;19990;-42
2021/01/26 11:48:31;;;;;;;;;;;16.70;60.50;;;;;;4195783;28;19931;-41
2021/01/26 11:50:52;;;;;;;;;;;16.60;60.60;;;;;;4192754;28;19920;-40
2021/01/26 11:53:14;;;;;;;;;;;16.60;60.60;;;;;;4196112;28;19931;-43
2021/01/26 11:55:36;;;;;;;;;;;16.60;60.80;;;;;;4196586;28;20321;-44
2021/01/26 11:57:57;;;;;;;;;;;16.60;61.00;;;;;;4195242;28;19931;-41
2021/01/26 12:00:19;;;;;;;;;;;16.50;61.10;;;;;;4196585;28;19928;-41
2021/01/26 12:02:40;;;;;;;;;;;16.50;61.40;;;;;;4195615;28;20027;-42
2021/01/26 12:05:02;;;;;;;;;;;16.50;61.70;;;;;;4180046;28;19927;-41
2021/01/26 12:07:24;;;;;;;;;;;16.50;61.60;;;;;;4179451;28;20464;-41
2021/01/26 12:09:45;;;;;;;;;;;16.50;61.80;;;;;;4179944;28;19986;-43
2021/01/26 12:12:06;;;;;;;;;;;16.50;61.70;;;;;;4192991;28;19932;-42
2021/01/26 12:14:27;;;;;;;;;;;16.60;61.50;;;;;;4192166;28;20013;-41
2021/01/26 12:16:48;;;;;;;;;;;16.50;61.40;;;;;;4186728;28;19924;-41
2021/01/26 12:19:09;;;;;;;;;;;16.50;61.70;;;;;;4195940;28;19924;-45
2021/01/26 12:21:30;;;;;;;;;;;16.50;62.40;;;;;;4195946;28;20030;-41
2021/01/26 12:23:51;;;;;;;;;;;16.50;62.60;;;;;;4195822;28;19928;-43
2021/01/26 12:26:12;;;;;;;;;;;16.50;63.00;;;;;;4194382;28;19921;-41
2021/01/26 12:28:33;;;;;;;;;;;16.60;63.20;;;;;;4195535;28;19920;-42
2021/01/26 12:30:54;;;;;;;;;;;16.60;62.80;;;;;;4195991;28;19924;-41
2021/01/26 12:33:15;;;;;;;;;;;16.60;62.60;;;;;;4195227;28;20363;-42
2021/01/26 12:35:40;;;;;;;;;;;16.50;62.60;;;;;;4194767;28;19928;-42
2021/01/26 12:38:01;;;;;;;;;;;16.50;62.70;;;;;;4195640;28;19924;-42
2021/01/26 12:40:22;;;;;;;;;;;16.40;62.80;;;;;;4192934;28;19920;-42
2021/01/26 12:42:43;;;;;;;;;;;16.30;62.90;;;;;;4195785;28;19927;-41
2021/01/26 12:45:04;;;;;;;;;;;16.30;63.20;;;;;;4195941;28;19924;-41
2021/01/26 12:47:25;;;;;;;;;;;16.20;63.40;;;;;;4196133;28;20023;-42
2021/01/26 12:49:48;;;;;;;;;;;16.10;63.60;;;;;;4179279;28;20424;-40
2021/01/26 12:52:10;;;;;;;;;;;16.00;63.80;;;;;;4195051;28;19924;-43
2021/01/26 12:54:31;;;;;;;;;;;16.00;64.10;;;;;;4179684;28;19988;-41
2021/01/26 12:56:52;;;;;;;;;;;15.90;64.40;;;;;;4184751;28;19928;-41
2021/01/26 12:59:14;;;;;;;;;;;15.90;64.60;;;;;;4198521;28;19967;-41
2021/01/26 13:01:35;;;;;;;;;;;15.80;64.80;;;;;;4198623;28;20017;-41
2021/01/26 13:03:56;;;;;;;;;;;15.80;65.00;;;;;;4199012;28;19927;-42
2021/01/26 13:06:16;;;;;;;;;;;15.70;65.10;;;;;;4196959;28;19924;-41
2021/01/26 13:08:38;;;;;;;;;;;15.60;65.30;;;;;;4196497;28;19947;-41
2021/01/26 13:11:11;;;;;;;;;;;15.60;65.60;;;;;;4184753;28;19928;-41
2021/01/26 13:13:32;;;;;;;;;;;15.50;66.00;;;;;;4187832;28;19921;-41
2021/01/26 13:15:53;;;;;;;;;;;15.50;66.30;;;;;;4197872;28;20381;-41
2021/01/26 13:18:14;;;;;;;;;;;15.40;66.30;;;;;;4197493;28;19947;-41
2021/01/26 13:20:35;;;;;;;;;;;15.40;66.40;;;;;;4182117;28;20652;-41
2021/01/26 13:22:56;;;;;;;;;;;15.40;66.60;;;;;;4187067;28;20445;-45
2021/01/26 13:25:19;;;;;;;;;;;15.30;66.70;;;;;;4198762;28;20436;-40
2021/01/26 13:27:40;;;;;;;;;;;15.30;66.80;;;;;;4198421;28;20333;-41
2021/01/26 13:30:01;;;;;;;;;;;15.30;67.00;;;;;;4198271;28;20234;-41
2021/01/26 13:32:22;;;;;;;;;;;15.40;66.90;;;;;;4196956;28;20347;-44
2021/01/26 13:34:44;;;;;;;;;;;15.50;66.30;;;;;;4198526;28;19924;-43
2021/01/26 13:37:05;;;;;;;;;;;15.60;65.90;;;;;;4199054;28;20397;-44
2021/01/26 13:39:26;;;;;;;;;;;15.70;65.60;;;;;;4198801;28;19924;-42
2021/01/26 13:41:51;;;;;;;;;;;15.70;65.50;;;;;;4198490;28;19920;-41
2021/01/26 13:44:15;;;;;;;;;;;15.70;65.40;;;;;;4198220;28;19920;-41
2021/01/26 13:46:36;;;;;;;;;;;15.70;65.40;;;;;;4198123;28;20640;-41
2021/01/26 13:48:57;;;;;;;;;;;15.70;65.50;;;;;;4198501;28;19931;-41
2021/01/26 13:51:18;;;;;;;;;;;15.60;65.50;;;;;;4198550;28;19965;-41
2021/01/26 13:53:39;;;;;;;;;;;15.60;65.70;;;;;;4197836;28;19924;-43
2021/01/26 13:56:00;;;;;;;;;;;15.60;65.90;;;;;;4194954;28;19931;-42
2021/01/26 13:58:21;;;;;;;;;;;15.50;66.00;;;;;;4197926;28;19994;-42
2021/01/26 14:00:42;;;;;;;;;;;15.40;66.20;;;;;;4198614;28;19932;-42